Maberry, Arkansas
Current Conditions -  °F | °C
As of 8:56 PM on Wednesday 22 Oct 2014 (Local Time) from KSRC Reporting Station
Clear Clear  
Wind Chill: 50°   Ceiling: Unl
Heat Index: 50°   Visibility: 10mi
Dew Point: 45°   Wind: 5mph
Humidity: 83%   Direction: 10°N
Pressure: 30.2"   Gusts: NA
Location:  35.03°N, 91.2263°W
Report Text: KSRC 230156Z AUTO 01004KT 10SM CLR 10/07 A3020 RMK AO2 SLP235 T01000072 TSNO
Loading
Personal Weather Stations






























Interactive Weather Map
Tropical Storm Tracking
New forecast layout! Learn more

10-Day Weather Forecast

Advertisements
Track Severe Weather on mobile